createdAt,value
2022-12-19T00:02:03.695Z,28.20
2022-12-19T00:07:06.457Z,27.35
2022-12-19T00:12:17.415Z,28.35
2022-12-19T00:17:23.856Z,27.80
2022-12-19T00:22:26.700Z,28.60
2022-12-19T00:27:29.303Z,27.45
2022-12-19T00:32:33.660Z,27.38
2022-12-19T00:37:36.294Z,29.37
2022-12-19T00:42:40.964Z,28.17
2022-12-19T00:47:45.867Z,28.23
2022-12-19T00:52:48.807Z,26.77
2022-12-19T00:57:51.557Z,28.08
2022-12-19T01:02:58.722Z,27.37
2022-12-19T01:08:01.389Z,28.63
2022-12-19T01:13:06.274Z,26.42
2022-12-19T01:18:12.023Z,28.77
2022-12-19T01:23:15.777Z,28.83
2022-12-19T01:28:20.113Z,29.13
2022-12-19T01:33:26.323Z,29.83
2022-12-19T01:38:29.675Z,28.60
2022-12-19T01:43:34.918Z,29.75
2022-12-19T01:48:43.778Z,27.90
2022-12-19T01:53:50.938Z,29.48
2022-12-19T01:59:06.087Z,28.48
2022-12-19T02:04:14.415Z,29.70
2022-12-19T02:09:17.575Z,26.90
2022-12-19T02:14:20.895Z,27.73
2022-12-19T02:19:53.693Z,26.43
2022-12-19T02:25:22.047Z,26.08
2022-12-19T02:30:54.024Z,27.17
2022-12-19T02:36:02.828Z,27.10
2022-12-19T02:41:09.617Z,26.77
2022-12-19T02:46:14.654Z,27.10
2022-12-19T02:51:18.533Z,25.83
2022-12-19T02:56:40.958Z,24.83
2022-12-19T03:01:48.727Z,26.08
2022-12-19T03:06:56.323Z,27.13
2022-12-19T03:12:07.546Z,25.33
2022-12-19T03:17:12.175Z,26.03
2022-12-19T03:22:15.035Z,26.88
2022-12-19T03:27:23.682Z,26.40
2022-12-19T03:32:30.430Z,25.37
2022-12-19T03:37:38.178Z,27.02
2022-12-19T03:42:59.762Z,26.38
2022-12-19T03:48:08.648Z,26.15
2022-12-19T03:53:22.668Z,25.48
2022-12-19T03:58:31.472Z,25.45
2022-12-19T04:03:37.072Z,26.73
2022-12-19T04:08:39.984Z,27.25
2022-12-19T04:13:48.538Z,28.98
2022-12-19T04:18:59.059Z,27.88
2022-12-19T04:24:06.815Z,28.60
2022-12-19T04:29:12.540Z,29.60
2022-12-19T04:34:20.626Z,29.63
2022-12-19T04:39:23.842Z,28.77
2022-12-19T04:44:27.413Z,30.10
2022-12-19T04:49:31.730Z,29.50
2022-12-19T04:54:34.526Z,31.20
2022-12-19T04:59:37.645Z,30.42
2022-12-19T05:04:41.613Z,35.05
2022-12-19T05:09:44.187Z,31.23
2022-12-19T05:14:47.342Z,31.02
2022-12-19T05:19:51.224Z,32.05
2022-12-19T05:24:53.825Z,31.88
2022-12-19T05:29:57.070Z,30.70
2022-12-19T05:35:01.202Z,31.10
2022-12-19T05:40:03.820Z,31.40
2022-12-19T05:45:07.240Z,32.47
2022-12-19T05:50:11.511Z,32.87
2022-12-19T05:55:14.504Z,32.58
2022-12-19T06:00:17.429Z,30.27
2022-12-19T06:05:21.339Z,31.50
2022-12-19T06:10:24.111Z,31.58
2022-12-19T06:15:27.291Z,36.97
2022-12-19T06:20:31.211Z,31.37
2022-12-19T06:25:34.984Z,30.63
2022-12-19T06:30:37.744Z,30.73
2022-12-19T06:35:42.314Z,26.30
2022-12-19T06:41:03.607Z,27.97
2022-12-19T06:46:07.427Z,27.07
2022-12-19T06:51:11.832Z,27.35
2022-12-19T06:56:16.348Z,29.42
2022-12-19T07:01:19.679Z,29.87
2022-12-19T07:06:24.491Z,29.90
2022-12-19T07:11:27.072Z,30.67
2022-12-19T07:16:29.869Z,29.75
2022-12-19T07:21:34.113Z,28.35
2022-12-19T07:26:36.846Z,29.80
2022-12-19T07:31:40.573Z,28.58
2022-12-19T07:36:44.521Z,28.75
2022-12-19T07:41:47.344Z,27.33
2022-12-19T07:46:50.005Z,27.80
2022-12-19T07:51:53.941Z,37.50
2022-12-19T07:56:56.502Z,28.20
2022-12-19T08:01:59.143Z,26.98
2022-12-19T08:07:03.338Z,26.63
2022-12-19T08:12:06.378Z,26.88
2022-12-19T08:17:20.428Z,26.60
2022-12-19T08:22:24.878Z,27.52
2022-12-19T08:27:28.183Z,25.53
2022-12-19T08:32:30.885Z,25.95
2022-12-19T08:37:34.780Z,39.22
2022-12-19T08:42:38.148Z,28.88
2022-12-19T08:47:40.711Z,25.50
2022-12-19T08:52:44.615Z,24.67
2022-12-19T08:57:48.193Z,25.65
2022-12-19T09:02:51.689Z,25.15
2022-12-19T09:07:55.685Z,24.73
2022-12-19T09:12:58.725Z,29.15
2022-12-19T09:18:01.286Z,23.73
2022-12-19T09:23:05.545Z,24.60
2022-12-19T09:33:35.513Z,24.20
2022-12-19T09:38:44.206Z,20.50
2022-12-19T09:43:59.564Z,21.42
2022-12-19T09:49:12.962Z,21.27
2022-12-19T09:54:23.362Z,21.50
2022-12-19T09:59:33.194Z,21.80
2022-12-19T10:04:49.242Z,22.38
2022-12-19T10:11:59.380Z,23.17
2022-12-19T10:15:26.870Z,23.40
2022-12-19T10:20:31.291Z,23.10
2022-12-19T10:26:00.673Z,23.45
2022-12-19T10:31:20.705Z,23.17
2022-12-19T10:36:48.700Z,22.70
2022-12-19T10:41:53.931Z,22.83
2022-12-19T10:46:56.554Z,22.30
2022-12-19T10:52:01.104Z,22.25
2022-12-19T10:57:20.371Z,24.25
2022-12-19T11:02:34.767Z,21.80
2022-12-19T11:07:37.476Z,22.08
2022-12-19T11:19:17.683Z,21.17
2022-12-19T11:27:13.903Z,21.23
2022-12-19T11:29:39.997Z,24.10
2022-12-19T11:31:51.351Z,22.00
2022-12-19T11:34:50.687Z,19.55
2022-12-19T11:39:59.548Z,20.67
2022-12-19T11:45:12.674Z,19.60
2022-12-19T11:50:18.927Z,19.90
2022-12-19T11:55:25.583Z,20.87
2022-12-19T12:00:31.128Z,21.48
2022-12-19T12:05:56.456Z,19.77
2022-12-19T12:15:19.058Z,24.90
2022-12-19T12:31:10.767Z,19.13
2022-12-19T12:32:02.267Z,23.42
2022-12-19T12:32:03.522Z,18.20
2022-12-19T12:35:32.949Z,17.80
2022-12-19T12:39:03.401Z,18.77
2022-12-19T12:44:10.043Z,19.73
2022-12-19T12:49:32.933Z,19.20
2022-12-19T12:54:38.898Z,18.83
2022-12-19T12:59:46.388Z,17.60
2022-12-19T13:04:58.756Z,18.03
2022-12-19T13:10:19.339Z,19.05
2022-12-19T13:15:37.156Z,18.67
2022-12-19T13:20:45.081Z,18.13
2022-12-19T13:25:51.385Z,18.27
2022-12-19T13:31:22.847Z,18.23
2022-12-19T13:39:54.508Z,17.60
2022-12-19T13:42:46.068Z,17.00
2022-12-19T13:47:51.854Z,19.58
2022-12-19T13:52:55.142Z,16.20
2022-12-19T13:57:59.042Z,14.93
2022-12-19T14:03:02.993Z,15.68
2022-12-19T14:08:08.332Z,15.60
2022-12-19T14:13:58.131Z,16.07
2022-12-19T14:19:00.373Z,15.93
2022-12-19T14:24:10.480Z,16.10
2022-12-19T14:29:17.911Z,15.88
2022-12-19T14:35:05.055Z,15.87
2022-12-19T14:40:08.539Z,15.10
2022-12-19T14:52:08.673Z,15.00
2022-12-19T14:54:04.907Z,14.98
2022-12-19T14:57:01.971Z,15.05
2022-12-19T15:02:27.708Z,13.30
2022-12-19T15:07:35.604Z,13.33
2022-12-19T15:14:47.192Z,13.70
2022-12-19T15:18:39.926Z,12.20
2022-12-19T15:23:44.731Z,13.50
2022-12-19T15:28:49.991Z,14.03
2022-12-19T15:34:32.373Z,12.63
2022-12-19T15:39:17.638Z,12.82
2022-12-19T15:44:31.509Z,12.83
2022-12-19T15:49:35.879Z,13.40
2022-12-19T15:54:53.864Z,12.80
2022-12-19T15:59:58.158Z,11.90
2022-12-19T16:05:04.415Z,12.50
2022-12-19T16:10:10.549Z,11.90
2022-12-19T16:15:21.068Z,12.40
2022-12-19T16:20:27.615Z,11.10
2022-12-19T16:25:35.860Z,12.20
2022-12-19T16:30:40.396Z,11.00
2022-12-19T16:41:15.671Z,11.57
2022-12-19T16:46:21.619Z,11.20
2022-12-19T16:51:28.957Z,10.40
2022-12-19T16:56:35.301Z,11.07
2022-12-19T17:01:37.980Z,11.95
2022-12-19T17:06:42.264Z,12.35
2022-12-19T17:11:48.525Z,16.83
2022-12-19T17:16:55.143Z,11.20
2022-12-19T17:21:59.323Z,11.50
2022-12-19T17:27:01.999Z,11.93
2022-12-19T17:32:06.837Z,11.68
2022-12-19T17:37:17.354Z,11.30
2022-12-19T17:42:23.355Z,11.43
2022-12-19T17:47:27.391Z,11.20
2022-12-19T17:52:36.670Z,10.45
2022-12-19T17:57:39.837Z,10.70
2022-12-19T18:02:45.260Z,12.02
2022-12-19T18:07:50.657Z,24.57
2022-12-19T18:12:54.157Z,12.02
2022-12-19T18:18:00.510Z,10.90
2022-12-19T18:23:18.664Z,11.25
2022-12-19T18:28:23.140Z,19.13
2022-12-19T18:33:26.375Z,14.70
2022-12-19T18:38:30.334Z,10.90
2022-12-19T18:43:33.933Z,10.70
2022-12-19T18:48:38.047Z,10.27
2022-12-19T18:53:43.393Z,9.80
2022-12-19T18:58:47.165Z,15.90
2022-12-19T19:03:55.227Z,11.10
2022-12-19T19:09:00.360Z,10.15
2022-12-19T19:14:23.129Z,10.18
2022-12-19T19:19:26.024Z,16.25
2022-12-19T19:24:30.827Z,10.15
2022-12-19T19:29:34.210Z,9.95
2022-12-19T19:34:41.369Z,10.10
2022-12-19T19:39:48.284Z,9.30
2022-12-19T19:44:51.759Z,8.95
2022-12-19T19:49:56.131Z,38.10
2022-12-19T19:55:00.416Z,9.63
2022-12-19T20:00:04.000Z,9.30
2022-12-19T20:05:17.413Z,9.90
2022-12-19T20:10:21.358Z,9.27
2022-12-19T20:15:24.446Z,8.93
2022-12-19T20:20:28.450Z,8.60
2022-12-19T20:25:32.842Z,38.80
2022-12-19T20:30:37.709Z,8.63
2022-12-19T20:35:40.893Z,6.87
2022-12-19T20:40:46.923Z,9.60
2022-12-19T20:45:50.733Z,8.20
2022-12-19T20:50:56.697Z,9.30
2022-12-19T20:56:02.922Z,6.80
2022-12-19T21:01:08.989Z,6.00
2022-12-19T21:06:13.469Z,5.50
2022-12-19T21:11:17.387Z,6.10
2022-12-19T21:16:23.264Z,5.60
2022-12-19T21:21:28.490Z,5.60
2022-12-19T21:26:33.884Z,5.13
2022-12-19T21:31:36.555Z,5.70
2022-12-19T21:36:39.523Z,5.90
2022-12-19T21:41:43.582Z,5.20
2022-12-19T21:46:48.082Z,5.10
2022-12-19T21:51:50.695Z,5.35
2022-12-19T21:56:54.680Z,5.23
2022-12-19T22:01:57.764Z,5.00
2022-12-19T22:07:00.648Z,5.63
2022-12-19T22:12:04.848Z,5.20
2022-12-19T22:17:07.506Z,5.70
2022-12-19T22:22:10.491Z,6.20
2022-12-19T22:27:14.451Z,6.60
2022-12-19T22:32:17.626Z,6.50
2022-12-19T22:37:20.187Z,6.28
2022-12-19T22:42:24.097Z,6.47
2022-12-19T22:47:26.727Z,6.27
2022-12-19T22:52:29.302Z,6.00
2022-12-19T22:57:33.539Z,6.53
2022-12-19T23:02:39.548Z,7.00
2022-12-19T23:07:42.298Z,6.30
2022-12-19T23:12:46.739Z,6.50
2022-12-19T23:17:49.288Z,6.00
2022-12-19T23:22:51.867Z,5.70
2022-12-19T23:27:55.802Z,5.45
2022-12-19T23:32:58.333Z,7.15
2022-12-19T23:38:00.896Z,5.78
2022-12-19T23:43:05.034Z,6.97
2022-12-19T23:48:08.110Z,5.53
2022-12-19T23:53:10.852Z,5.15
2022-12-19T23:58:20.756Z,5.00
